sensor_id;sensor_type;location;lat;lon;timestamp;P1;durP1;ratioP1;P2;durP2;ratioP2
67442;SDS011;54311;51.726;5.154;2024-03-08T00:01:35;41.90;;;30.85;;
67442;SDS011;54311;51.726;5.154;2024-03-08T00:04:00;45.35;;;31.35;;
67442;SDS011;54311;51.726;5.154;2024-03-08T00:06:25;45.90;;;32.75;;
67442;SDS011;54311;51.726;5.154;2024-03-08T00:08:51;50.28;;;30.88;;
67442;SDS011;54311;51.726;5.154;2024-03-08T00:11:16;46.15;;;31.75;;
67442;SDS011;54311;51.726;5.154;2024-03-08T00:13:42;43.88;;;30.00;;
67442;SDS011;54311;51.726;5.154;2024-03-08T00:16:07;51.72;;;32.85;;
67442;SDS011;54311;51.726;5.154;2024-03-08T00:18:34;43.83;;;31.50;;
67442;SDS011;54311;51.726;5.154;2024-03-08T00:20:59;44.30;;;31.50;;
67442;SDS011;54311;51.726;5.154;2024-03-08T00:23:25;41.22;;;30.63;;
67442;SDS011;54311;51.726;5.154;2024-03-08T00:25:50;53.10;;;31.23;;
67442;SDS011;54311;51.726;5.154;2024-03-08T00:28:16;41.85;;;30.73;;
67442;SDS011;54311;51.726;5.154;2024-03-08T00:30:43;42.05;;;32.20;;
67442;SDS011;54311;51.726;5.154;2024-03-08T00:33:10;48.40;;;31.13;;
67442;SDS011;54311;51.726;5.154;2024-03-08T00:35:35;47.83;;;33.03;;
67442;SDS011;54311;51.726;5.154;2024-03-08T00:38:01;42.83;;;30.73;;
67442;SDS011;54311;51.726;5.154;2024-03-08T00:40:26;47.58;;;31.13;;
67442;SDS011;54311;51.726;5.154;2024-03-08T00:42:52;39.35;;;29.23;;
67442;SDS011;54311;51.726;5.154;2024-03-08T00:45:18;44.63;;;31.02;;
67442;SDS011;54311;51.726;5.154;2024-03-08T00:47:43;46.65;;;32.63;;
67442;SDS011;54311;51.726;5.154;2024-03-08T00:50:09;45.55;;;30.83;;
67442;SDS011;54311;51.726;5.154;2024-03-08T00:52:34;43.72;;;30.67;;
67442;SDS011;54311;51.726;5.154;2024-03-08T00:55:00;40.05;;;30.60;;
67442;SDS011;54311;51.726;5.154;2024-03-08T00:57:25;42.90;;;31.15;;
67442;SDS011;54311;51.726;5.154;2024-03-08T00:59:51;41.53;;;30.17;;
67442;SDS011;54311;51.726;5.154;2024-03-08T01:02:17;42.10;;;31.88;;
67442;SDS011;54311;51.726;5.154;2024-03-08T01:04:44;41.20;;;29.48;;
67442;SDS011;54311;51.726;5.154;2024-03-08T01:07:09;43.05;;;30.08;;
67442;SDS011;54311;51.726;5.154;2024-03-08T01:09:35;40.25;;;31.55;;
67442;SDS011;54311;51.726;5.154;2024-03-08T01:12:01;43.70;;;31.20;;
67442;SDS011;54311;51.726;5.154;2024-03-08T01:14:26;42.42;;;29.83;;
67442;SDS011;54311;51.726;5.154;2024-03-08T01:16:51;39.30;;;30.55;;
67442;SDS011;54311;51.726;5.154;2024-03-08T01:19:17;38.72;;;29.67;;
67442;SDS011;54311;51.726;5.154;2024-03-08T01:21:42;40.85;;;29.90;;
67442;SDS011;54311;51.726;5.154;2024-03-08T01:24:08;40.20;;;30.67;;
67442;SDS011;54311;51.726;5.154;2024-03-08T01:26:33;46.80;;;30.85;;
67442;SDS011;54311;51.726;5.154;2024-03-08T01:29:02;38.20;;;29.75;;
67442;SDS011;54311;51.726;5.154;2024-03-08T01:31:28;38.20;;;29.63;;
67442;SDS011;54311;51.726;5.154;2024-03-08T01:33:54;40.65;;;30.48;;
67442;SDS011;54311;51.726;5.154;2024-03-08T01:36:20;37.50;;;29.15;;
67442;SDS011;54311;51.726;5.154;2024-03-08T01:38:46;42.08;;;30.40;;
67442;SDS011;54311;51.726;5.154;2024-03-08T01:41:11;38.50;;;29.30;;
67442;SDS011;54311;51.726;5.154;2024-03-08T01:43:38;41.83;;;31.42;;
67442;SDS011;54311;51.726;5.154;2024-03-08T01:46:03;41.38;;;31.90;;
67442;SDS011;54311;51.726;5.154;2024-03-08T01:48:30;40.80;;;30.15;;
67442;SDS011;54311;51.726;5.154;2024-03-08T01:50:58;41.40;;;30.52;;
67442;SDS011;54311;51.726;5.154;2024-03-08T01:53:24;43.20;;;30.35;;
67442;SDS011;54311;51.726;5.154;2024-03-08T01:55:50;38.55;;;31.15;;
67442;SDS011;54311;51.726;5.154;2024-03-08T01:58:17;40.95;;;30.60;;
67442;SDS011;54311;51.726;5.154;2024-03-08T02:00:43;38.42;;;30.58;;
67442;SDS011;54311;51.726;5.154;2024-03-08T02:03:10;41.58;;;31.05;;
67442;SDS011;54311;51.726;5.154;2024-03-08T02:05:36;35.65;;;30.88;;
67442;SDS011;54311;51.726;5.154;2024-03-08T02:08:03;38.47;;;29.77;;
67442;SDS011;54311;51.726;5.154;2024-03-08T02:10:30;37.55;;;28.38;;
67442;SDS011;54311;51.726;5.154;2024-03-08T02:12:57;38.45;;;30.73;;
67442;SDS011;54311;51.726;5.154;2024-03-08T02:15:23;38.90;;;31.55;;
67442;SDS011;54311;51.726;5.154;2024-03-08T02:17:48;43.08;;;31.63;;
67442;SDS011;54311;51.726;5.154;2024-03-08T02:20:14;37.90;;;29.55;;
67442;SDS011;54311;51.726;5.154;2024-03-08T02:22:39;41.55;;;29.80;;
67442;SDS011;54311;51.726;5.154;2024-03-08T02:25:05;39.10;;;30.90;;
67442;SDS011;54311;51.726;5.154;2024-03-08T02:27:30;38.25;;;29.70;;
67442;SDS011;54311;51.726;5.154;2024-03-08T02:29:56;40.85;;;30.88;;
67442;SDS011;54311;51.726;5.154;2024-03-08T02:32:25;39.15;;;29.92;;
67442;SDS011;54311;51.726;5.154;2024-03-08T02:34:50;39.20;;;29.70;;
67442;SDS011;54311;51.726;5.154;2024-03-08T02:37:16;36.92;;;30.63;;
67442;SDS011;54311;51.726;5.154;2024-03-08T02:39:42;41.58;;;30.98;;
67442;SDS011;54311;51.726;5.154;2024-03-08T02:42:08;36.88;;;29.98;;
67442;SDS011;54311;51.726;5.154;2024-03-08T02:44:33;46.03;;;31.55;;
67442;SDS011;54311;51.726;5.154;2024-03-08T02:46:59;42.50;;;31.20;;
67442;SDS011;54311;51.726;5.154;2024-03-08T02:49:25;39.45;;;30.42;;
67442;SDS011;54311;51.726;5.154;2024-03-08T02:51:51;37.17;;;29.83;;
67442;SDS011;54311;51.726;5.154;2024-03-08T02:54:17;39.97;;;30.75;;
67442;SDS011;54311;51.726;5.154;2024-03-08T02:56:42;38.40;;;30.40;;
67442;SDS011;54311;51.726;5.154;2024-03-08T02:59:07;36.22;;;29.23;;
67442;SDS011;54311;51.726;5.154;2024-03-08T03:01:33;41.70;;;31.08;;
67442;SDS011;54311;51.726;5.154;2024-03-08T03:03:59;39.65;;;29.13;;
67442;SDS011;54311;51.726;5.154;2024-03-08T03:06:25;38.42;;;30.73;;
67442;SDS011;54311;51.726;5.154;2024-03-08T03:08:50;38.17;;;30.00;;
67442;SDS011;54311;51.726;5.154;2024-03-08T03:11:16;39.95;;;31.48;;
67442;SDS011;54311;51.726;5.154;2024-03-08T03:13:42;38.28;;;30.50;;
67442;SDS011;54311;51.726;5.154;2024-03-08T03:16:16;40.70;;;31.67;;
67442;SDS011;54311;51.726;5.154;2024-03-08T03:18:42;40.47;;;31.20;;
67442;SDS011;54311;51.726;5.154;2024-03-08T03:21:08;44.83;;;30.63;;
67442;SDS011;54311;51.726;5.154;2024-03-08T03:23:33;38.58;;;31.50;;
67442;SDS011;54311;51.726;5.154;2024-03-08T03:25:59;38.50;;;32.08;;
67442;SDS011;54311;51.726;5.154;2024-03-08T03:28:25;39.53;;;31.92;;
67442;SDS011;54311;51.726;5.154;2024-03-08T03:30:51;43.22;;;32.03;;
67442;SDS011;54311;51.726;5.154;2024-03-08T03:33:17;36.53;;;31.00;;
67442;SDS011;54311;51.726;5.154;2024-03-08T03:35:43;40.00;;;32.03;;
67442;SDS011;54311;51.726;5.154;2024-03-08T03:38:09;41.03;;;31.83;;
67442;SDS011;54311;51.726;5.154;2024-03-08T03:40:34;40.95;;;31.52;;
67442;SDS011;54311;51.726;5.154;2024-03-08T03:43:03;39.00;;;32.35;;
67442;SDS011;54311;51.726;5.154;2024-03-08T03:45:29;40.17;;;32.17;;
67442;SDS011;54311;51.726;5.154;2024-03-08T03:47:55;43.63;;;33.22;;
67442;SDS011;54311;51.726;5.154;2024-03-08T03:50:20;38.40;;;31.60;;
67442;SDS011;54311;51.726;5.154;2024-03-08T03:52:47;40.42;;;33.05;;
67442;SDS011;54311;51.726;5.154;2024-03-08T03:55:12;40.05;;;32.55;;
67442;SDS011;54311;51.726;5.154;2024-03-08T03:57:38;40.70;;;32.42;;
67442;SDS011;54311;51.726;5.154;2024-03-08T04:00:04;38.20;;;32.42;;
67442;SDS011;54311;51.726;5.154;2024-03-08T04:02:31;40.35;;;31.77;;
67442;SDS011;54311;51.726;5.154;2024-03-08T04:04:56;44.88;;;33.58;;
67442;SDS011;54311;51.726;5.154;2024-03-08T04:07:21;41.05;;;33.15;;
67442;SDS011;54311;51.726;5.154;2024-03-08T04:09:47;41.70;;;33.10;;
67442;SDS011;54311;51.726;5.154;2024-03-08T04:12:12;40.28;;;33.22;;
67442;SDS011;54311;51.726;5.154;2024-03-08T04:14:41;41.28;;;33.45;;
67442;SDS011;54311;51.726;5.154;2024-03-08T04:17:06;43.88;;;34.28;;
67442;SDS011;54311;51.726;5.154;2024-03-08T04:19:33;42.40;;;34.00;;
67442;SDS011;54311;51.726;5.154;2024-03-08T04:21:59;43.45;;;34.97;;
67442;SDS011;54311;51.726;5.154;2024-03-08T04:24:26;40.88;;;33.55;;
67442;SDS011;54311;51.726;5.154;2024-03-08T04:26:51;43.65;;;35.70;;
67442;SDS011;54311;51.726;5.154;2024-03-08T04:29:16;45.53;;;35.83;;
67442;SDS011;54311;51.726;5.154;2024-03-08T04:31:42;44.35;;;33.67;;
67442;SDS011;54311;51.726;5.154;2024-03-08T04:34:07;41.28;;;32.40;;
67442;SDS011;54311;51.726;5.154;2024-03-08T04:36:33;44.15;;;34.80;;
67442;SDS011;54311;51.726;5.154;2024-03-08T04:38:59;44.13;;;33.95;;
67442;SDS011;54311;51.726;5.154;2024-03-08T04:41:24;44.63;;;35.20;;
67442;SDS011;54311;51.726;5.154;2024-03-08T04:43:50;47.63;;;35.53;;
67442;SDS011;54311;51.726;5.154;2024-03-08T04:46:15;47.47;;;33.65;;
67442;SDS011;54311;51.726;5.154;2024-03-08T04:48:41;43.47;;;34.97;;
67442;SDS011;54311;51.726;5.154;2024-03-08T04:51:07;47.47;;;34.67;;
67442;SDS011;54311;51.726;5.154;2024-03-08T04:53:33;40.30;;;33.97;;
67442;SDS011;54311;51.726;5.154;2024-03-08T04:55:59;44.95;;;34.50;;
67442;SDS011;54311;51.726;5.154;2024-03-08T04:58:24;43.17;;;34.50;;
67442;SDS011;54311;51.726;5.154;2024-03-08T05:00:50;49.00;;;35.45;;
67442;SDS011;54311;51.726;5.154;2024-03-08T05:03:15;42.10;;;34.80;;
67442;SDS011;54311;51.726;5.154;2024-03-08T05:05:41;42.88;;;35.38;;
67442;SDS011;54311;51.726;5.154;2024-03-08T05:08:06;44.00;;;34.58;;
67442;SDS011;54311;51.726;5.154;2024-03-08T05:10:31;45.67;;;35.03;;
67442;SDS011;54311;51.726;5.154;2024-03-08T05:12:57;47.83;;;34.78;;
67442;SDS011;54311;51.726;5.154;2024-03-08T05:15:24;43.88;;;35.13;;
67442;SDS011;54311;51.726;5.154;2024-03-08T05:17:49;44.80;;;35.00;;
67442;SDS011;54311;51.726;5.154;2024-03-08T05:20:14;42.13;;;34.20;;
67442;SDS011;54311;51.726;5.154;2024-03-08T05:22:42;47.70;;;35.60;;
67442;SDS011;54311;51.726;5.154;2024-03-08T05:25:07;45.63;;;36.03;;
67442;SDS011;54311;51.726;5.154;2024-03-08T05:27:34;53.05;;;36.35;;
67442;SDS011;54311;51.726;5.154;2024-03-08T05:30:00;44.53;;;34.80;;
67442;SDS011;54311;51.726;5.154;2024-03-08T05:32:25;43.95;;;35.03;;
67442;SDS011;54311;51.726;5.154;2024-03-08T05:34:51;45.58;;;34.35;;
67442;SDS011;54311;51.726;5.154;2024-03-08T05:37:17;43.22;;;35.33;;
67442;SDS011;54311;51.726;5.154;2024-03-08T05:39:42;44.58;;;35.13;;
67442;SDS011;54311;51.726;5.154;2024-03-08T05:42:07;44.17;;;34.83;;
67442;SDS011;54311;51.726;5.154;2024-03-08T05:44:35;45.33;;;35.20;;
67442;SDS011;54311;51.726;5.154;2024-03-08T05:47:01;45.90;;;36.70;;
67442;SDS011;54311;51.726;5.154;2024-03-08T05:49:26;46.70;;;37.72;;
67442;SDS011;54311;51.726;5.154;2024-03-08T05:51:51;45.72;;;37.22;;
67442;SDS011;54311;51.726;5.154;2024-03-08T05:54:19;44.65;;;35.45;;
67442;SDS011;54311;51.726;5.154;2024-03-08T05:56:47;42.65;;;34.38;;
67442;SDS011;54311;51.726;5.154;2024-03-08T05:59:12;48.72;;;37.53;;
67442;SDS011;54311;51.726;5.154;2024-03-08T06:01:38;49.70;;;36.13;;
67442;SDS011;54311;51.726;5.154;2024-03-08T06:04:05;46.38;;;36.42;;
67442;SDS011;54311;51.726;5.154;2024-03-08T06:06:31;48.67;;;37.20;;
67442;SDS011;54311;51.726;5.154;2024-03-08T06:08:56;48.80;;;36.92;;
67442;SDS011;54311;51.726;5.154;2024-03-08T06:11:23;49.30;;;36.55;;
67442;SDS011;54311;51.726;5.154;2024-03-08T06:13:51;49.25;;;37.33;;
67442;SDS011;54311;51.726;5.154;2024-03-08T06:16:17;43.55;;;36.70;;
67442;SDS011;54311;51.726;5.154;2024-03-08T06:18:42;47.90;;;38.40;;
67442;SDS011;54311;51.726;5.154;2024-03-08T06:21:08;51.22;;;37.55;;
67442;SDS011;54311;51.726;5.154;2024-03-08T06:23:37;45.97;;;36.55;;
67442;SDS011;54311;51.726;5.154;2024-03-08T06:26:03;47.28;;;35.25;;
67442;SDS011;54311;51.726;5.154;2024-03-08T06:28:29;50.78;;;37.65;;
67442;SDS011;54311;51.726;5.154;2024-03-08T06:30:54;47.70;;;36.13;;
67442;SDS011;54311;51.726;5.154;2024-03-08T06:33:20;54.33;;;37.20;;
67442;SDS011;54311;51.726;5.154;2024-03-08T06:35:45;49.67;;;37.97;;
67442;SDS011;54311;51.726;5.154;2024-03-08T06:38:10;45.50;;;37.83;;
67442;SDS011;54311;51.726;5.154;2024-03-08T06:40:36;49.92;;;37.67;;
67442;SDS011;54311;51.726;5.154;2024-03-08T06:43:02;48.97;;;37.13;;
67442;SDS011;54311;51.726;5.154;2024-03-08T06:45:30;46.92;;;35.03;;
67442;SDS011;54311;51.726;5.154;2024-03-08T06:47:56;45.78;;;36.53;;
67442;SDS011;54311;51.726;5.154;2024-03-08T06:50:21;44.55;;;33.30;;
67442;SDS011;54311;51.726;5.154;2024-03-08T06:52:47;51.35;;;37.50;;
67442;SDS011;54311;51.726;5.154;2024-03-08T06:55:15;46.97;;;37.15;;
67442;SDS011;54311;51.726;5.154;2024-03-08T06:57:42;44.75;;;33.72;;
67442;SDS011;54311;51.726;5.154;2024-03-08T07:00:07;48.25;;;34.85;;
67442;SDS011;54311;51.726;5.154;2024-03-08T07:02:40;48.50;;;37.03;;
67442;SDS011;54311;51.726;5.154;2024-03-08T07:05:05;52.95;;;36.50;;
67442;SDS011;54311;51.726;5.154;2024-03-08T07:07:31;47.80;;;36.40;;
67442;SDS011;54311;51.726;5.154;2024-03-08T07:09:58;44.58;;;32.22;;
67442;SDS011;54311;51.726;5.154;2024-03-08T07:12:24;46.47;;;33.10;;
67442;SDS011;54311;51.726;5.154;2024-03-08T07:14:49;48.17;;;34.65;;
67442;SDS011;54311;51.726;5.154;2024-03-08T07:17:14;60.95;;;36.58;;
67442;SDS011;54311;51.726;5.154;2024-03-08T07:19:41;47.22;;;36.75;;
67442;SDS011;54311;51.726;5.154;2024-03-08T07:22:07;48.92;;;37.50;;
67442;SDS011;54311;51.726;5.154;2024-03-08T07:24:35;49.40;;;37.60;;
67442;SDS011;54311;51.726;5.154;2024-03-08T07:27:04;47.33;;;37.30;;
67442;SDS011;54311;51.726;5.154;2024-03-08T07:29:30;53.13;;;36.20;;
67442;SDS011;54311;51.726;5.154;2024-03-08T07:31:55;49.90;;;36.95;;
67442;SDS011;54311;51.726;5.154;2024-03-08T07:34:50;49.97;;;36.17;;
67442;SDS011;54311;51.726;5.154;2024-03-08T07:37:16;47.50;;;37.33;;
67442;SDS011;54311;51.726;5.154;2024-03-08T07:39:43;44.90;;;34.78;;
67442;SDS011;54311;51.726;5.154;2024-03-08T07:42:11;50.30;;;37.88;;
67442;SDS011;54311;51.726;5.154;2024-03-08T07:44:37;46.85;;;35.92;;
67442;SDS011;54311;51.726;5.154;2024-03-08T07:47:02;47.25;;;36.33;;
67442;SDS011;54311;51.726;5.154;2024-03-08T07:49:28;50.60;;;35.90;;
67442;SDS011;54311;51.726;5.154;2024-03-08T07:51:54;49.65;;;35.63;;
67442;SDS011;54311;51.726;5.154;2024-03-08T07:54:20;47.95;;;37.55;;
67442;SDS011;54311;51.726;5.154;2024-03-08T07:56:46;47.72;;;34.60;;
67442;SDS011;54311;51.726;5.154;2024-03-08T07:59:11;45.67;;;37.58;;
67442;SDS011;54311;51.726;5.154;2024-03-08T08:01:37;43.65;;;35.60;;
67442;SDS011;54311;51.726;5.154;2024-03-08T08:04:02;50.30;;;35.03;;
67442;SDS011;54311;51.726;5.154;2024-03-08T08:06:28;47.60;;;37.05;;
67442;SDS011;54311;51.726;5.154;2024-03-08T08:08:56;46.17;;;38.17;;
67442;SDS011;54311;51.726;5.154;2024-03-08T08:11:22;43.28;;;35.05;;
67442;SDS011;54311;51.726;5.154;2024-03-08T08:13:47;47.00;;;36.47;;
67442;SDS011;54311;51.726;5.154;2024-03-08T08:16:13;49.67;;;35.30;;
67442;SDS011;54311;51.726;5.154;2024-03-08T08:18:38;47.92;;;35.72;;
67442;SDS011;54311;51.726;5.154;2024-03-08T08:21:04;49.08;;;36.28;;
67442;SDS011;54311;51.726;5.154;2024-03-08T08:23:31;50.47;;;35.67;;
67442;SDS011;54311;51.726;5.154;2024-03-08T08:25:57;44.85;;;36.70;;
67442;SDS011;54311;51.726;5.154;2024-03-08T08:28:22;43.92;;;36.17;;
67442;SDS011;54311;51.726;5.154;2024-03-08T08:30:48;45.03;;;35.03;;
67442;SDS011;54311;51.726;5.154;2024-03-08T08:33:16;42.83;;;33.75;;
67442;SDS011;54311;51.726;5.154;2024-03-08T08:35:41;46.00;;;34.60;;
67442;SDS011;54311;51.726;5.154;2024-03-08T08:38:07;43.88;;;34.75;;
67442;SDS011;54311;51.726;5.154;2024-03-08T08:40:33;45.17;;;35.95;;
67442;SDS011;54311;51.726;5.154;2024-03-08T08:42:59;48.38;;;35.78;;
67442;SDS011;54311;51.726;5.154;2024-03-08T08:45:24;43.72;;;33.80;;
67442;SDS011;54311;51.726;5.154;2024-03-08T08:47:50;43.17;;;33.90;;
67442;SDS011;54311;51.726;5.154;2024-03-08T08:50:15;50.15;;;36.85;;
67442;SDS011;54311;51.726;5.154;2024-03-08T08:52:41;43.20;;;33.92;;
67442;SDS011;54311;51.726;5.154;2024-03-08T08:55:10;42.47;;;34.42;;
67442;SDS011;54311;51.726;5.154;2024-03-08T08:57:39;47.75;;;35.70;;
67442;SDS011;54311;51.726;5.154;2024-03-08T09:00:05;88.47;;;65.60;;
67442;SDS011;54311;51.726;5.154;2024-03-08T09:02:32;89.68;;;63.47;;
67442;SDS011;54311;51.726;5.154;2024-03-08T09:04:58;48.70;;;36.67;;
67442;SDS011;54311;51.726;5.154;2024-03-08T09:07:23;57.42;;;46.17;;
67442;SDS011;54311;51.726;5.154;2024-03-08T09:09:49;54.88;;;46.28;;
67442;SDS011;54311;51.726;5.154;2024-03-08T09:12:14;49.67;;;38.35;;
67442;SDS011;54311;51.726;5.154;2024-03-08T09:14:40;42.88;;;33.88;;
67442;SDS011;54311;51.726;5.154;2024-03-08T09:17:06;43.22;;;35.90;;
67442;SDS011;54311;51.726;5.154;2024-03-08T09:19:34;42.13;;;35.40;;
67442;SDS011;54311;51.726;5.154;2024-03-08T09:22:01;44.17;;;34.15;;
67442;SDS011;54311;51.726;5.154;2024-03-08T09:24:28;44.33;;;36.65;;
67442;SDS011;54311;51.726;5.154;2024-03-08T09:26:54;45.42;;;36.45;;
67442;SDS011;54311;51.726;5.154;2024-03-08T09:29:21;44.95;;;36.38;;
67442;SDS011;54311;51.726;5.154;2024-03-08T09:31:49;48.75;;;40.10;;
67442;SDS011;54311;51.726;5.154;2024-03-08T09:34:14;45.58;;;35.60;;
67442;SDS011;54311;51.726;5.154;2024-03-08T09:36:39;47.03;;;36.92;;
67442;SDS011;54311;51.726;5.154;2024-03-08T09:39:06;41.03;;;33.00;;
67442;SDS011;54311;51.726;5.154;2024-03-08T09:41:32;45.35;;;34.60;;
67442;SDS011;54311;51.726;5.154;2024-03-08T09:43:59;47.60;;;34.97;;
67442;SDS011;54311;51.726;5.154;2024-03-08T09:46:24;40.03;;;33.60;;
67442;SDS011;54311;51.726;5.154;2024-03-08T09:48:51;46.25;;;35.08;;
67442;SDS011;54311;51.726;5.154;2024-03-08T09:51:17;41.33;;;31.05;;
67442;SDS011;54311;51.726;5.154;2024-03-08T09:53:42;39.67;;;31.42;;
67442;SDS011;54311;51.726;5.154;2024-03-08T09:56:08;35.92;;;28.55;;
67442;SDS011;54311;51.726;5.154;2024-03-08T09:58:33;42.22;;;30.88;;
67442;SDS011;54311;51.726;5.154;2024-03-08T10:00:59;41.90;;;31.05;;
67442;SDS011;54311;51.726;5.154;2024-03-08T10:03:29;123.32;;;93.18;;
67442;SDS011;54311;51.726;5.154;2024-03-08T10:05:56;68.90;;;56.03;;
67442;SDS011;54311;51.726;5.154;2024-03-08T10:08:25;37.75;;;32.22;;
67442;SDS011;54311;51.726;5.154;2024-03-08T10:10:52;48.42;;;42.53;;
67442;SDS011;54311;51.726;5.154;2024-03-08T10:13:17;47.15;;;37.03;;
67442;SDS011;54311;51.726;5.154;2024-03-08T10:15:44;34.88;;;30.33;;
67442;SDS011;54311;51.726;5.154;2024-03-08T10:18:10;40.80;;;28.63;;
67442;SDS011;54311;51.726;5.154;2024-03-08T10:20:35;33.22;;;27.45;;
67442;SDS011;54311;51.726;5.154;2024-03-08T10:23:01;36.53;;;28.92;;
67442;SDS011;54311;51.726;5.154;2024-03-08T10:25:28;34.95;;;28.50;;
67442;SDS011;54311;51.726;5.154;2024-03-08T10:27:55;35.22;;;28.55;;
67442;SDS011;54311;51.726;5.154;2024-03-08T10:30:21;38.63;;;29.67;;
67442;SDS011;54311;51.726;5.154;2024-03-08T10:32:47;33.40;;;27.30;;
67442;SDS011;54311;51.726;5.154;2024-03-08T10:35:13;35.28;;;28.25;;
67442;SDS011;54311;51.726;5.154;2024-03-08T10:37:44;33.75;;;27.60;;
67442;SDS011;54311;51.726;5.154;2024-03-08T10:40:17;35.22;;;28.27;;
67442;SDS011;54311;51.726;5.154;2024-03-08T10:42:56;49.42;;;25.58;;
67442;SDS011;54311;51.726;5.154;2024-03-08T10:50:47;31.90;;;27.20;;
67442;SDS011;54311;51.726;5.154;2024-03-08T10:53:15;30.98;;;25.95;;
67442;SDS011;54311;51.726;5.154;2024-03-08T10:55:42;28.15;;;23.38;;
67442;SDS011;54311;51.726;5.154;2024-03-08T10:58:09;27.60;;;24.33;;
67442;SDS011;54311;51.726;5.154;2024-03-08T11:00:36;30.52;;;25.50;;
67442;SDS011;54311;51.726;5.154;2024-03-08T11:03:02;33.22;;;26.77;;
67442;SDS011;54311;51.726;5.154;2024-03-08T11:08:24;30.55;;;27.23;;
67442;SDS011;54311;51.726;5.154;2024-03-08T11:10:52;31.08;;;26.20;;
67442;SDS011;54311;51.726;5.154;2024-03-08T11:16:12;30.05;;;25.48;;
67442;SDS011;54311;51.726;5.154;2024-03-08T11:18:54;32.22;;;25.13;;
67442;SDS011;54311;51.726;5.154;2024-03-08T11:21:23;33.28;;;25.65;;
67442;SDS011;54311;51.726;5.154;2024-03-08T11:24:00;52.78;;;42.00;;
67442;SDS011;54311;51.726;5.154;2024-03-08T11:26:26;36.38;;;29.83;;
67442;SDS011;54311;51.726;5.154;2024-03-08T11:28:52;32.42;;;28.92;;
67442;SDS011;54311;51.726;5.154;2024-03-08T11:33:45;31.38;;;26.13;;
67442;SDS011;54311;51.726;5.154;2024-03-08T11:36:11;33.65;;;28.48;;
67442;SDS011;54311;51.726;5.154;2024-03-08T11:38:41;32.22;;;26.75;;
67442;SDS011;54311;51.726;5.154;2024-03-08T11:41:08;32.17;;;25.95;;
67442;SDS011;54311;51.726;5.154;2024-03-08T11:43:37;33.28;;;26.30;;
67442;SDS011;54311;51.726;5.154;2024-03-08T11:46:08;31.13;;;24.00;;
67442;SDS011;54311;51.726;5.154;2024-03-08T11:48:34;32.83;;;26.13;;
67442;SDS011;54311;51.726;5.154;2024-03-08T11:51:01;34.78;;;26.08;;
67442;SDS011;54311;51.726;5.154;2024-03-08T11:53:26;29.90;;;25.77;;
67442;SDS011;54311;51.726;5.154;2024-03-08T11:55:52;33.42;;;27.10;;
67442;SDS011;54311;51.726;5.154;2024-03-08T11:58:17;29.25;;;24.63;;
67442;SDS011;54311;51.726;5.154;2024-03-08T12:00:43;29.85;;;25.45;;
67442;SDS011;54311;51.726;5.154;2024-03-08T12:03:11;31.23;;;24.83;;
67442;SDS011;54311;51.726;5.154;2024-03-08T12:05:37;28.25;;;24.02;;
67442;SDS011;54311;51.726;5.154;2024-03-08T12:08:03;28.55;;;25.17;;
67442;SDS011;54311;51.726;5.154;2024-03-08T12:10:31;30.05;;;24.05;;
67442;SDS011;54311;51.726;5.154;2024-03-08T12:12:57;31.73;;;25.63;;
67442;SDS011;54311;51.726;5.154;2024-03-08T12:15:28;29.95;;;25.02;;
67442;SDS011;54311;51.726;5.154;2024-03-08T12:17:54;34.22;;;25.67;;
67442;SDS011;54311;51.726;5.154;2024-03-08T12:20:21;29.80;;;25.52;;
67442;SDS011;54311;51.726;5.154;2024-03-08T12:22:51;27.83;;;24.65;;
67442;SDS011;54311;51.726;5.154;2024-03-08T12:25:22;36.40;;;24.40;;
67442;SDS011;54311;51.726;5.154;2024-03-08T12:27:47;32.47;;;26.77;;
67442;SDS011;54311;51.726;5.154;2024-03-08T12:32:52;30.25;;;25.42;;
67442;SDS011;54311;51.726;5.154;2024-03-08T12:35:20;30.73;;;26.20;;
67442;SDS011;54311;51.726;5.154;2024-03-08T12:37:47;30.70;;;25.10;;
67442;SDS011;54311;51.726;5.154;2024-03-08T12:40:16;30.85;;;25.58;;
67442;SDS011;54311;51.726;5.154;2024-03-08T12:42:43;31.55;;;26.25;;
67442;SDS011;54311;51.726;5.154;2024-03-08T12:45:11;31.05;;;25.42;;
67442;SDS011;54311;51.726;5.154;2024-03-08T12:47:37;32.65;;;24.17;;
67442;SDS011;54311;51.726;5.154;2024-03-08T12:50:03;33.15;;;25.10;;
67442;SDS011;54311;51.726;5.154;2024-03-08T12:52:28;30.48;;;24.00;;
67442;SDS011;54311;51.726;5.154;2024-03-08T12:54:55;31.98;;;25.98;;
67442;SDS011;54311;51.726;5.154;2024-03-08T12:57:20;31.80;;;26.15;;
67442;SDS011;54311;51.726;5.154;2024-03-08T12:59:46;29.38;;;25.73;;
67442;SDS011;54311;51.726;5.154;2024-03-08T13:02:11;28.58;;;24.83;;
67442;SDS011;54311;51.726;5.154;2024-03-08T13:04:36;33.53;;;25.02;;
67442;SDS011;54311;51.726;5.154;2024-03-08T13:07:02;33.08;;;26.35;;
67442;SDS011;54311;51.726;5.154;2024-03-08T13:09:28;28.38;;;25.30;;
67442;SDS011;54311;51.726;5.154;2024-03-08T13:11:54;36.22;;;27.40;;
67442;SDS011;54311;51.726;5.154;2024-03-08T13:14:20;34.58;;;26.52;;
67442;SDS011;54311;51.726;5.154;2024-03-08T13:16:46;32.40;;;25.02;;
67442;SDS011;54311;51.726;5.154;2024-03-08T13:19:13;32.13;;;26.65;;
67442;SDS011;54311;51.726;5.154;2024-03-08T13:21:38;30.52;;;25.50;;
67442;SDS011;54311;51.726;5.154;2024-03-08T13:24:04;32.53;;;26.42;;
67442;SDS011;54311;51.726;5.154;2024-03-08T13:26:29;32.28;;;24.60;;
67442;SDS011;54311;51.726;5.154;2024-03-08T13:28:57;29.73;;;24.55;;
67442;SDS011;54311;51.726;5.154;2024-03-08T13:31:23;33.55;;;25.50;;
67442;SDS011;54311;51.726;5.154;2024-03-08T13:33:49;30.48;;;25.35;;
67442;SDS011;54311;51.726;5.154;2024-03-08T13:36:16;28.88;;;24.75;;
67442;SDS011;54311;51.726;5.154;2024-03-08T13:38:42;27.75;;;24.77;;
67442;SDS011;54311;51.726;5.154;2024-03-08T13:41:08;28.35;;;24.48;;
67442;SDS011;54311;51.726;5.154;2024-03-08T13:43:34;28.88;;;24.33;;
67442;SDS011;54311;51.726;5.154;2024-03-08T13:46:01;29.65;;;25.55;;
67442;SDS011;54311;51.726;5.154;2024-03-08T13:48:27;31.45;;;24.88;;
67442;SDS011;54311;51.726;5.154;2024-03-08T13:50:53;29.25;;;24.27;;
67442;SDS011;54311;51.726;5.154;2024-03-08T13:53:18;27.13;;;24.17;;
67442;SDS011;54311;51.726;5.154;2024-03-08T13:55:43;29.83;;;25.00;;
67442;SDS011;54311;51.726;5.154;2024-03-08T13:58:09;31.98;;;25.50;;
67442;SDS011;54311;51.726;5.154;2024-03-08T14:00:35;32.50;;;26.30;;
67442;SDS011;54311;51.726;5.154;2024-03-08T14:03:03;33.22;;;26.08;;
67442;SDS011;54311;51.726;5.154;2024-03-08T14:05:31;31.48;;;24.92;;
67442;SDS011;54311;51.726;5.154;2024-03-08T14:08:00;29.50;;;25.13;;
67442;SDS011;54311;51.726;5.154;2024-03-08T14:10:29;28.88;;;25.52;;
67442;SDS011;54311;51.726;5.154;2024-03-08T14:12:56;31.65;;;24.52;;
67442;SDS011;54311;51.726;5.154;2024-03-08T14:15:22;34.55;;;25.13;;
67442;SDS011;54311;51.726;5.154;2024-03-08T14:17:54;29.83;;;25.50;;
67442;SDS011;54311;51.726;5.154;2024-03-08T14:20:20;33.97;;;25.05;;
67442;SDS011;54311;51.726;5.154;2024-03-08T14:22:50;26.27;;;23.05;;
67442;SDS011;54311;51.726;5.154;2024-03-08T14:25:16;27.65;;;23.55;;
67442;SDS011;54311;51.726;5.154;2024-03-08T14:27:45;29.67;;;23.23;;
67442;SDS011;54311;51.726;5.154;2024-03-08T14:30:11;29.75;;;25.63;;
67442;SDS011;54311;51.726;5.154;2024-03-08T14:32:37;30.38;;;25.75;;